sensor_id;sensor_type;location;lat;lon;timestamp;P1;durP1;ratioP1;P2;durP2;ratioP2
5127;SDS011;2582;48.770;9.190;2023-12-20T00:00:58;1.70;;;1.60;;
5127;SDS011;2582;48.770;9.190;2023-12-20T00:03:24;1.43;;;1.33;;
5127;SDS011;2582;48.770;9.190;2023-12-20T00:05:49;2.07;;;1.53;;
5127;SDS011;2582;48.770;9.190;2023-12-20T00:08:15;1.90;;;1.70;;
5127;SDS011;2582;48.770;9.190;2023-12-20T00:10:41;1.53;;;1.40;;
5127;SDS011;2582;48.770;9.190;2023-12-20T00:13:08;2.93;;;1.87;;
5127;SDS011;2582;48.770;9.190;2023-12-20T00:15:34;2.30;;;1.40;;
5127;SDS011;2582;48.770;9.190;2023-12-20T00:17:59;1.77;;;1.57;;
5127;SDS011;2582;48.770;9.190;2023-12-20T00:20:26;1.80;;;1.50;;
5127;SDS011;2582;48.770;9.190;2023-12-20T00:22:52;1.50;;;1.40;;
5127;SDS011;2582;48.770;9.190;2023-12-20T00:25:19;1.40;;;1.30;;
5127;SDS011;2582;48.770;9.190;2023-12-20T00:27:45;1.60;;;1.30;;
5127;SDS011;2582;48.770;9.190;2023-12-20T00:30:11;1.50;;;1.20;;
5127;SDS011;2582;48.770;9.190;2023-12-20T00:32:36;1.60;;;1.50;;
5127;SDS011;2582;48.770;9.190;2023-12-20T00:35:02;1.60;;;1.30;;
5127;SDS011;2582;48.770;9.190;2023-12-20T00:37:28;1.93;;;1.40;;
5127;SDS011;2582;48.770;9.190;2023-12-20T00:39:54;1.73;;;1.23;;
5127;SDS011;2582;48.770;9.190;2023-12-20T00:42:19;1.97;;;1.50;;
5127;SDS011;2582;48.770;9.190;2023-12-20T00:44:45;1.73;;;1.23;;
5127;SDS011;2582;48.770;9.190;2023-12-20T00:47:11;1.67;;;1.40;;
5127;SDS011;2582;48.770;9.190;2023-12-20T00:49:36;1.60;;;1.50;;
5127;SDS011;2582;48.770;9.190;2023-12-20T00:52:02;1.87;;;1.27;;
5127;SDS011;2582;48.770;9.190;2023-12-20T00:54:28;1.60;;;1.20;;
5127;SDS011;2582;48.770;9.190;2023-12-20T00:56:55;2.77;;;1.30;;
5127;SDS011;2582;48.770;9.190;2023-12-20T00:59:21;1.83;;;1.57;;
5127;SDS011;2582;48.770;9.190;2023-12-20T01:01:46;1.90;;;1.03;;
5127;SDS011;2582;48.770;9.190;2023-12-20T01:04:12;1.20;;;1.07;;
5127;SDS011;2582;48.770;9.190;2023-12-20T01:06:38;1.37;;;1.20;;
5127;SDS011;2582;48.770;9.190;2023-12-20T01:09:03;1.40;;;1.30;;
5127;SDS011;2582;48.770;9.190;2023-12-20T01:11:29;1.20;;;1.10;;
5127;SDS011;2582;48.770;9.190;2023-12-20T01:13:54;1.33;;;1.07;;
5127;SDS011;2582;48.770;9.190;2023-12-20T01:16:20;1.40;;;1.23;;
5127;SDS011;2582;48.770;9.190;2023-12-20T01:18:46;1.43;;;1.20;;
5127;SDS011;2582;48.770;9.190;2023-12-20T01:21:12;1.17;;;1.00;;
5127;SDS011;2582;48.770;9.190;2023-12-20T01:23:37;1.50;;;1.40;;
5127;SDS011;2582;48.770;9.190;2023-12-20T01:26:03;1.23;;;1.13;;
5127;SDS011;2582;48.770;9.190;2023-12-20T01:28:30;2.33;;;1.50;;
5127;SDS011;2582;48.770;9.190;2023-12-20T01:30:56;2.50;;;1.40;;
5127;SDS011;2582;48.770;9.190;2023-12-20T01:33:22;1.23;;;1.10;;
5127;SDS011;2582;48.770;9.190;2023-12-20T01:35:48;1.50;;;1.40;;
5127;SDS011;2582;48.770;9.190;2023-12-20T01:38:14;1.20;;;1.07;;
5127;SDS011;2582;48.770;9.190;2023-12-20T01:40:39;2.50;;;1.27;;
5127;SDS011;2582;48.770;9.190;2023-12-20T01:43:08;1.33;;;1.10;;
5127;SDS011;2582;48.770;9.190;2023-12-20T01:45:34;1.50;;;1.30;;
5127;SDS011;2582;48.770;9.190;2023-12-20T01:48:00;1.10;;;1.00;;
5127;SDS011;2582;48.770;9.190;2023-12-20T01:50:28;1.80;;;1.33;;
5127;SDS011;2582;48.770;9.190;2023-12-20T01:52:55;2.07;;;1.30;;
5127;SDS011;2582;48.770;9.190;2023-12-20T01:55:22;1.10;;;1.00;;
5127;SDS011;2582;48.770;9.190;2023-12-20T01:57:49;1.30;;;0.90;;
5127;SDS011;2582;48.770;9.190;2023-12-20T02:00:15;1.03;;;0.93;;
5127;SDS011;2582;48.770;9.190;2023-12-20T02:02:42;1.20;;;0.90;;
5127;SDS011;2582;48.770;9.190;2023-12-20T02:05:09;1.10;;;1.00;;
5127;SDS011;2582;48.770;9.190;2023-12-20T02:07:35;1.20;;;1.00;;
5127;SDS011;2582;48.770;9.190;2023-12-20T02:10:01;1.30;;;1.10;;
5127;SDS011;2582;48.770;9.190;2023-12-20T02:12:28;1.33;;;1.00;;
5127;SDS011;2582;48.770;9.190;2023-12-20T02:14:54;1.43;;;1.23;;
5127;SDS011;2582;48.770;9.190;2023-12-20T02:17:20;1.40;;;1.30;;
5127;SDS011;2582;48.770;9.190;2023-12-20T02:19:45;1.57;;;1.00;;
5127;SDS011;2582;48.770;9.190;2023-12-20T02:22:12;1.80;;;1.23;;
5127;SDS011;2582;48.770;9.190;2023-12-20T02:24:37;1.20;;;1.00;;
5127;SDS011;2582;48.770;9.190;2023-12-20T02:27:04;1.60;;;1.50;;
5127;SDS011;2582;48.770;9.190;2023-12-20T02:29:32;1.50;;;1.00;;
5127;SDS011;2582;48.770;9.190;2023-12-20T02:32:01;1.50;;;1.37;;
5127;SDS011;2582;48.770;9.190;2023-12-20T02:34:27;1.30;;;1.20;;
5127;SDS011;2582;48.770;9.190;2023-12-20T02:36:53;1.40;;;1.00;;
5127;SDS011;2582;48.770;9.190;2023-12-20T02:39:21;1.20;;;1.10;;
5127;SDS011;2582;48.770;9.190;2023-12-20T02:41:46;1.60;;;1.33;;
5127;SDS011;2582;48.770;9.190;2023-12-20T02:44:12;2.00;;;1.60;;
5127;SDS011;2582;48.770;9.190;2023-12-20T02:46:38;2.13;;;1.53;;
5127;SDS011;2582;48.770;9.190;2023-12-20T02:49:03;1.50;;;1.40;;
5127;SDS011;2582;48.770;9.190;2023-12-20T02:51:29;1.57;;;1.47;;
5127;SDS011;2582;48.770;9.190;2023-12-20T02:53:54;1.80;;;1.50;;
5127;SDS011;2582;48.770;9.190;2023-12-20T02:56:20;1.67;;;1.10;;
5127;SDS011;2582;48.770;9.190;2023-12-20T02:58:46;1.57;;;1.37;;
5127;SDS011;2582;48.770;9.190;2023-12-20T03:01:11;1.70;;;1.50;;
5127;SDS011;2582;48.770;9.190;2023-12-20T03:03:37;2.90;;;1.70;;
5127;SDS011;2582;48.770;9.190;2023-12-20T03:06:02;2.20;;;1.90;;
5127;SDS011;2582;48.770;9.190;2023-12-20T03:08:28;2.03;;;1.83;;
5127;SDS011;2582;48.770;9.190;2023-12-20T03:10:53;1.47;;;1.30;;
5127;SDS011;2582;48.770;9.190;2023-12-20T03:13:19;1.90;;;1.60;;
5127;SDS011;2582;48.770;9.190;2023-12-20T03:15:45;2.20;;;1.20;;
5127;SDS011;2582;48.770;9.190;2023-12-20T03:18:11;1.80;;;1.70;;
5127;SDS011;2582;48.770;9.190;2023-12-20T03:20:37;2.33;;;1.83;;
5127;SDS011;2582;48.770;9.190;2023-12-20T03:23:02;2.03;;;1.83;;
5127;SDS011;2582;48.770;9.190;2023-12-20T03:25:28;1.67;;;1.40;;
5127;SDS011;2582;48.770;9.190;2023-12-20T03:27:54;2.90;;;0.97;;
5127;SDS011;2582;48.770;9.190;2023-12-20T03:30:20;1.37;;;1.27;;
5127;SDS011;2582;48.770;9.190;2023-12-20T03:32:46;1.57;;;1.27;;
5127;SDS011;2582;48.770;9.190;2023-12-20T03:35:12;0.70;;;0.70;;
5127;SDS011;2582;48.770;9.190;2023-12-20T03:37:38;2.10;;;0.80;;
5127;SDS011;2582;48.770;9.190;2023-12-20T03:40:03;0.90;;;0.60;;
5127;SDS011;2582;48.770;9.190;2023-12-20T03:42:30;1.27;;;0.70;;
5127;SDS011;2582;48.770;9.190;2023-12-20T03:44:55;2.33;;;0.80;;
5127;SDS011;2582;48.770;9.190;2023-12-20T03:47:21;1.67;;;0.60;;
5127;SDS011;2582;48.770;9.190;2023-12-20T03:49:47;0.70;;;0.50;;
5127;SDS011;2582;48.770;9.190;2023-12-20T03:52:12;0.80;;;0.60;;
5127;SDS011;2582;48.770;9.190;2023-12-20T03:54:38;1.10;;;0.70;;
5127;SDS011;2582;48.770;9.190;2023-12-20T03:57:03;0.80;;;0.70;;
5127;SDS011;2582;48.770;9.190;2023-12-20T03:59:29;1.00;;;0.83;;
5127;SDS011;2582;48.770;9.190;2023-12-20T04:01:59;1.27;;;0.60;;
5127;SDS011;2582;48.770;9.190;2023-12-20T04:04:25;0.87;;;0.70;;
5127;SDS011;2582;48.770;9.190;2023-12-20T04:06:50;1.00;;;0.70;;
5127;SDS011;2582;48.770;9.190;2023-12-20T04:09:16;0.90;;;0.60;;
5127;SDS011;2582;48.770;9.190;2023-12-20T04:11:41;0.70;;;0.50;;
5127;SDS011;2582;48.770;9.190;2023-12-20T04:14:07;0.70;;;0.50;;
5127;SDS011;2582;48.770;9.190;2023-12-20T04:16:32;0.70;;;0.50;;
5127;SDS011;2582;48.770;9.190;2023-12-20T04:18:58;1.67;;;0.60;;
5127;SDS011;2582;48.770;9.190;2023-12-20T04:21:24;0.60;;;0.50;;
5127;SDS011;2582;48.770;9.190;2023-12-20T04:23:49;1.90;;;0.60;;
5127;SDS011;2582;48.770;9.190;2023-12-20T04:26:15;0.70;;;0.50;;
5127;SDS011;2582;48.770;9.190;2023-12-20T04:28:40;1.00;;;0.60;;
5127;SDS011;2582;48.770;9.190;2023-12-20T04:31:06;0.67;;;0.50;;
5127;SDS011;2582;48.770;9.190;2023-12-20T04:33:31;0.70;;;0.40;;
5127;SDS011;2582;48.770;9.190;2023-12-20T04:35:57;1.00;;;0.50;;
5127;SDS011;2582;48.770;9.190;2023-12-20T04:38:23;0.83;;;0.60;;
5127;SDS011;2582;48.770;9.190;2023-12-20T04:40:48;1.13;;;0.50;;
5127;SDS011;2582;48.770;9.190;2023-12-20T04:43:14;0.90;;;0.50;;
5127;SDS011;2582;48.770;9.190;2023-12-20T04:45:40;1.50;;;0.60;;
5127;SDS011;2582;48.770;9.190;2023-12-20T04:48:05;0.60;;;0.40;;
5127;SDS011;2582;48.770;9.190;2023-12-20T04:50:31;0.70;;;0.50;;
5127;SDS011;2582;48.770;9.190;2023-12-20T04:52:57;1.30;;;0.50;;
5127;SDS011;2582;48.770;9.190;2023-12-20T04:55:22;0.70;;;0.40;;
5127;SDS011;2582;48.770;9.190;2023-12-20T04:57:48;1.67;;;0.60;;
5127;SDS011;2582;48.770;9.190;2023-12-20T05:00:13;0.90;;;0.60;;
5127;SDS011;2582;48.770;9.190;2023-12-20T05:02:40;0.87;;;0.50;;
5127;SDS011;2582;48.770;9.190;2023-12-20T05:05:06;2.00;;;0.57;;
5127;SDS011;2582;48.770;9.190;2023-12-20T05:07:32;0.70;;;0.47;;
5127;SDS011;2582;48.770;9.190;2023-12-20T05:09:58;0.77;;;0.53;;
5127;SDS011;2582;48.770;9.190;2023-12-20T05:12:24;0.90;;;0.57;;
5127;SDS011;2582;48.770;9.190;2023-12-20T05:14:51;1.03;;;0.53;;
5127;SDS011;2582;48.770;9.190;2023-12-20T05:17:17;0.77;;;0.47;;
5127;SDS011;2582;48.770;9.190;2023-12-20T05:19:42;0.70;;;0.60;;
5127;SDS011;2582;48.770;9.190;2023-12-20T05:22:08;1.20;;;0.60;;
5127;SDS011;2582;48.770;9.190;2023-12-20T05:24:34;6.70;;;5.50;;
5127;SDS011;2582;48.770;9.190;2023-12-20T05:27:00;11.73;;;10.50;;
5127;SDS011;2582;48.770;9.190;2023-12-20T05:29:25;32.43;;;28.67;;
5127;SDS011;2582;48.770;9.190;2023-12-20T05:31:51;24.33;;;21.13;;
5127;SDS011;2582;48.770;9.190;2023-12-20T05:34:16;11.43;;;10.27;;
5127;SDS011;2582;48.770;9.190;2023-12-20T05:36:42;4.13;;;3.47;;
5127;SDS011;2582;48.770;9.190;2023-12-20T05:39:08;8.03;;;6.10;;
5127;SDS011;2582;48.770;9.190;2023-12-20T05:41:33;47.83;;;42.43;;
5127;SDS011;2582;48.770;9.190;2023-12-20T05:43:59;27.33;;;24.43;;
5127;SDS011;2582;48.770;9.190;2023-12-20T05:46:25;5.90;;;5.30;;
5127;SDS011;2582;48.770;9.190;2023-12-20T05:48:51;5.17;;;4.70;;
5127;SDS011;2582;48.770;9.190;2023-12-20T05:51:17;7.83;;;4.37;;
5127;SDS011;2582;48.770;9.190;2023-12-20T05:53:43;4.00;;;3.67;;
5127;SDS011;2582;48.770;9.190;2023-12-20T05:56:09;1.93;;;1.60;;
5127;SDS011;2582;48.770;9.190;2023-12-20T05:58:35;2.00;;;1.20;;
5127;SDS011;2582;48.770;9.190;2023-12-20T06:01:03;2.07;;;1.87;;
5127;SDS011;2582;48.770;9.190;2023-12-20T06:03:29;1.60;;;0.70;;
5127;SDS011;2582;48.770;9.190;2023-12-20T06:05:55;2.90;;;2.60;;
5127;SDS011;2582;48.770;9.190;2023-12-20T06:08:20;4.00;;;1.93;;
5127;SDS011;2582;48.770;9.190;2023-12-20T06:10:46;1.87;;;1.77;;
5127;SDS011;2582;48.770;9.190;2023-12-20T06:13:12;8.60;;;7.80;;
5127;SDS011;2582;48.770;9.190;2023-12-20T06:15:38;1.77;;;1.30;;
5127;SDS011;2582;48.770;9.190;2023-12-20T06:18:05;4.30;;;3.10;;
5127;SDS011;2582;48.770;9.190;2023-12-20T06:20:30;3.20;;;2.90;;
5127;SDS011;2582;48.770;9.190;2023-12-20T06:22:56;5.97;;;5.37;;
5127;SDS011;2582;48.770;9.190;2023-12-20T06:25:22;4.70;;;3.30;;
5127;SDS011;2582;48.770;9.190;2023-12-20T06:27:47;15.80;;;14.33;;
5127;SDS011;2582;48.770;9.190;2023-12-20T06:30:13;8.87;;;7.97;;
5127;SDS011;2582;48.770;9.190;2023-12-20T06:32:40;17.47;;;15.77;;
5127;SDS011;2582;48.770;9.190;2023-12-20T06:35:07;6.77;;;5.73;;
5127;SDS011;2582;48.770;9.190;2023-12-20T06:37:33;7.50;;;6.70;;
5127;SDS011;2582;48.770;9.190;2023-12-20T06:39:59;14.27;;;12.23;;
5127;SDS011;2582;48.770;9.190;2023-12-20T06:42:25;8.37;;;6.83;;
5127;SDS011;2582;48.770;9.190;2023-12-20T06:44:51;1.43;;;0.93;;
5127;SDS011;2582;48.770;9.190;2023-12-20T06:47:16;9.20;;;8.40;;
5127;SDS011;2582;48.770;9.190;2023-12-20T06:49:42;7.77;;;6.90;;
5127;SDS011;2582;48.770;9.190;2023-12-20T06:52:07;2.07;;;1.33;;
5127;SDS011;2582;48.770;9.190;2023-12-20T06:54:33;2.10;;;2.00;;
5127;SDS011;2582;48.770;9.190;2023-12-20T06:56:59;0.80;;;0.80;;
5127;SDS011;2582;48.770;9.190;2023-12-20T06:59:25;1.67;;;1.57;;
5127;SDS011;2582;48.770;9.190;2023-12-20T07:01:51;2.30;;;2.00;;
5127;SDS011;2582;48.770;9.190;2023-12-20T07:04:17;1.10;;;0.90;;
5127;SDS011;2582;48.770;9.190;2023-12-20T07:06:46;0.73;;;0.57;;
5127;SDS011;2582;48.770;9.190;2023-12-20T07:09:13;2.13;;;1.10;;
5127;SDS011;2582;48.770;9.190;2023-12-20T07:11:39;1.73;;;0.90;;
5127;SDS011;2582;48.770;9.190;2023-12-20T07:14:04;2.43;;;1.17;;
5127;SDS011;2582;48.770;9.190;2023-12-20T07:16:30;1.83;;;1.60;;
5127;SDS011;2582;48.770;9.190;2023-12-20T07:18:56;1.75;;;1.40;;
5127;SDS011;2582;48.770;9.190;2023-12-20T07:21:22;1.60;;;1.20;;
5127;SDS011;2582;48.770;9.190;2023-12-20T07:23:47;7.30;;;6.40;;
5127;SDS011;2582;48.770;9.190;2023-12-20T07:26:13;1.13;;;0.87;;
5127;SDS011;2582;48.770;9.190;2023-12-20T07:28:40;3.97;;;3.47;;
5127;SDS011;2582;48.770;9.190;2023-12-20T07:31:05;5.03;;;1.03;;
5127;SDS011;2582;48.770;9.190;2023-12-20T07:33:31;0.90;;;0.70;;
5127;SDS011;2582;48.770;9.190;2023-12-20T07:35:56;2.03;;;1.00;;
5127;SDS011;2582;48.770;9.190;2023-12-20T07:38:22;1.20;;;1.10;;
5127;SDS011;2582;48.770;9.190;2023-12-20T07:40:48;1.80;;;1.43;;
5127;SDS011;2582;48.770;9.190;2023-12-20T07:43:14;2.20;;;2.00;;
5127;SDS011;2582;48.770;9.190;2023-12-20T07:45:40;1.97;;;1.87;;
5127;SDS011;2582;48.770;9.190;2023-12-20T07:48:06;1.93;;;1.83;;
5127;SDS011;2582;48.770;9.190;2023-12-20T07:50:32;2.27;;;2.07;;
5127;SDS011;2582;48.770;9.190;2023-12-20T07:52:58;2.67;;;2.47;;
5127;SDS011;2582;48.770;9.190;2023-12-20T07:55:25;4.00;;;3.17;;
5127;SDS011;2582;48.770;9.190;2023-12-20T07:57:51;2.77;;;2.57;;
5127;SDS011;2582;48.770;9.190;2023-12-20T08:00:17;3.63;;;2.80;;
5127;SDS011;2582;48.770;9.190;2023-12-20T08:02:43;2.90;;;2.57;;
5127;SDS011;2582;48.770;9.190;2023-12-20T08:05:08;3.30;;;2.77;;
5127;SDS011;2582;48.770;9.190;2023-12-20T08:07:34;3.30;;;3.00;;
5127;SDS011;2582;48.770;9.190;2023-12-20T08:10:00;3.57;;;3.00;;
5127;SDS011;2582;48.770;9.190;2023-12-20T08:12:25;7.80;;;3.63;;
5127;SDS011;2582;48.770;9.190;2023-12-20T08:14:52;2.97;;;2.77;;
5127;SDS011;2582;48.770;9.190;2023-12-20T08:17:19;3.87;;;3.13;;
5127;SDS011;2582;48.770;9.190;2023-12-20T08:19:44;3.70;;;2.90;;
5127;SDS011;2582;48.770;9.190;2023-12-20T08:22:10;3.80;;;3.23;;
5127;SDS011;2582;48.770;9.190;2023-12-20T08:24:36;3.30;;;3.00;;
5127;SDS011;2582;48.770;9.190;2023-12-20T08:27:02;4.40;;;3.03;;
5127;SDS011;2582;48.770;9.190;2023-12-20T08:29:27;3.13;;;2.90;;
5127;SDS011;2582;48.770;9.190;2023-12-20T08:31:53;3.43;;;3.10;;
5127;SDS011;2582;48.770;9.190;2023-12-20T08:34:20;2.80;;;2.53;;
5127;SDS011;2582;48.770;9.190;2023-12-20T08:36:45;6.53;;;3.37;;
5127;SDS011;2582;48.770;9.190;2023-12-20T08:39:11;7.73;;;2.57;;
5127;SDS011;2582;48.770;9.190;2023-12-20T08:41:36;3.67;;;3.17;;
5127;SDS011;2582;48.770;9.190;2023-12-20T08:44:02;3.43;;;2.70;;
5127;SDS011;2582;48.770;9.190;2023-12-20T08:46:28;2.80;;;2.60;;
5127;SDS011;2582;48.770;9.190;2023-12-20T08:48:54;3.50;;;3.20;;
5127;SDS011;2582;48.770;9.190;2023-12-20T08:51:19;4.40;;;2.70;;
5127;SDS011;2582;48.770;9.190;2023-12-20T08:53:47;5.97;;;3.40;;
5127;SDS011;2582;48.770;9.190;2023-12-20T08:56:14;4.17;;;3.00;;
5127;SDS011;2582;48.770;9.190;2023-12-20T08:58:39;4.03;;;3.20;;
5127;SDS011;2582;48.770;9.190;2023-12-20T09:01:05;4.70;;;3.40;;
5127;SDS011;2582;48.770;9.190;2023-12-20T09:03:30;3.40;;;3.10;;
5127;SDS011;2582;48.770;9.190;2023-12-20T09:05:56;3.50;;;2.83;;
5127;SDS011;2582;48.770;9.190;2023-12-20T09:08:21;3.50;;;3.20;;
5127;SDS011;2582;48.770;9.190;2023-12-20T09:10:47;3.87;;;3.20;;
5127;SDS011;2582;48.770;9.190;2023-12-20T09:13:13;3.13;;;2.83;;
5127;SDS011;2582;48.770;9.190;2023-12-20T09:15:38;3.67;;;3.37;;
5127;SDS011;2582;48.770;9.190;2023-12-20T09:18:04;3.13;;;2.83;;
5127;SDS011;2582;48.770;9.190;2023-12-20T09:20:29;4.17;;;3.10;;
5127;SDS011;2582;48.770;9.190;2023-12-20T09:22:55;2.93;;;2.73;;
5127;SDS011;2582;48.770;9.190;2023-12-20T09:25:21;3.50;;;3.20;;
5127;SDS011;2582;48.770;9.190;2023-12-20T09:27:48;4.73;;;4.00;;
5127;SDS011;2582;48.770;9.190;2023-12-20T09:30:13;2.83;;;2.53;;
5127;SDS011;2582;48.770;9.190;2023-12-20T09:32:39;5.10;;;3.10;;
5127;SDS011;2582;48.770;9.190;2023-12-20T09:35:05;5.10;;;3.27;;
5127;SDS011;2582;48.770;9.190;2023-12-20T09:37:31;3.97;;;2.93;;
5127;SDS011;2582;48.770;9.190;2023-12-20T09:39:57;3.23;;;2.93;;
5127;SDS011;2582;48.770;9.190;2023-12-20T09:45:19;3.40;;;2.33;;
5127;SDS011;2582;48.770;9.190;2023-12-20T09:47:46;3.03;;;2.37;;
5127;SDS011;2582;48.770;9.190;2023-12-20T09:50:13;4.30;;;2.23;;
5127;SDS011;2582;48.770;9.190;2023-12-20T09:52:39;2.93;;;1.77;;
5127;SDS011;2582;48.770;9.190;2023-12-20T09:55:07;2.80;;;1.80;;
5127;SDS011;2582;48.770;9.190;2023-12-20T09:57:33;3.13;;;1.83;;
5127;SDS011;2582;48.770;9.190;2023-12-20T09:59:58;5.20;;;2.37;;
5127;SDS011;2582;48.770;9.190;2023-12-20T10:02:24;4.20;;;1.80;;
5127;SDS011;2582;48.770;9.190;2023-12-20T10:04:54;5.13;;;2.23;;
5127;SDS011;2582;48.770;9.190;2023-12-20T10:07:20;5.90;;;2.33;;
5127;SDS011;2582;48.770;9.190;2023-12-20T10:09:47;4.37;;;2.00;;
5127;SDS011;2582;48.770;9.190;2023-12-20T10:12:13;2.70;;;1.87;;
5127;SDS011;2582;48.770;9.190;2023-12-20T10:14:39;3.10;;;1.80;;
5127;SDS011;2582;48.770;9.190;2023-12-20T10:17:05;4.10;;;2.10;;
5127;SDS011;2582;48.770;9.190;2023-12-20T10:19:31;6.73;;;2.20;;
5127;SDS011;2582;48.770;9.190;2023-12-20T10:21:57;4.20;;;2.10;;
5127;SDS011;2582;48.770;9.190;2023-12-20T10:24:24;3.10;;;1.73;;
5127;SDS011;2582;48.770;9.190;2023-12-20T10:27:03;2.63;;;1.90;;
5127;SDS011;2582;48.770;9.190;2023-12-20T10:29:33;3.40;;;1.53;;
5127;SDS011;2582;48.770;9.190;2023-12-20T10:31:59;8.93;;;1.97;;
5127;SDS011;2582;48.770;9.190;2023-12-20T10:34:25;6.37;;;2.40;;
5127;SDS011;2582;48.770;9.190;2023-12-20T10:36:51;2.53;;;1.93;;
5127;SDS011;2582;48.770;9.190;2023-12-20T10:39:17;5.03;;;2.20;;
5127;SDS011;2582;48.770;9.190;2023-12-20T10:41:45;8.93;;;2.10;;
5127;SDS011;2582;48.770;9.190;2023-12-20T10:44:11;3.60;;;1.93;;
5127;SDS011;2582;48.770;9.190;2023-12-20T10:46:38;4.40;;;1.80;;
5127;SDS011;2582;48.770;9.190;2023-12-20T10:49:05;7.57;;;2.80;;
5127;SDS011;2582;48.770;9.190;2023-12-20T10:51:33;3.40;;;1.90;;
5127;SDS011;2582;48.770;9.190;2023-12-20T10:54:00;3.03;;;2.70;;
5127;SDS011;2582;48.770;9.190;2023-12-20T10:56:25;5.33;;;2.20;;
5127;SDS011;2582;48.770;9.190;2023-12-20T10:58:57;5.20;;;2.30;;
5127;SDS011;2582;48.770;9.190;2023-12-20T11:01:27;6.80;;;2.70;;
5127;SDS011;2582;48.770;9.190;2023-12-20T11:03:54;5.13;;;2.03;;
5127;SDS011;2582;48.770;9.190;2023-12-20T11:09:10;3.57;;;1.70;;
5127;SDS011;2582;48.770;9.190;2023-12-20T11:11:46;2.53;;;2.00;;
5127;SDS011;2582;48.770;9.190;2023-12-20T11:17:20;8.27;;;2.27;;
5127;SDS011;2582;48.770;9.190;2023-12-20T11:22:18;2.20;;;2.00;;
5127;SDS011;2582;48.770;9.190;2023-12-20T11:24:45;6.17;;;2.10;;
5127;SDS011;2582;48.770;9.190;2023-12-20T11:27:12;3.40;;;2.10;;
5127;SDS011;2582;48.770;9.190;2023-12-20T11:29:38;6.67;;;2.67;;
5127;SDS011;2582;48.770;9.190;2023-12-20T11:32:49;3.80;;;2.07;;
5127;SDS011;2582;48.770;9.190;2023-12-20T11:34:51;3.10;;;1.50;;
5127;SDS011;2582;48.770;9.190;2023-12-20T11:37:19;3.20;;;2.40;;
5127;SDS011;2582;48.770;9.190;2023-12-20T11:39:45;3.10;;;1.80;;
5127;SDS011;2582;48.770;9.190;2023-12-20T11:42:18;2.00;;;1.67;;
5127;SDS011;2582;48.770;9.190;2023-12-20T11:44:45;5.30;;;1.87;;
5127;SDS011;2582;48.770;9.190;2023-12-20T11:47:11;3.43;;;1.97;;
5127;SDS011;2582;48.770;9.190;2023-12-20T11:49:38;6.27;;;1.97;;
5127;SDS011;2582;48.770;9.190;2023-12-20T11:52:04;2.83;;;1.73;;
5127;SDS011;2582;48.770;9.190;2023-12-20T11:54:30;5.60;;;2.47;;
5127;SDS011;2582;48.770;9.190;2023-12-20T11:56:55;6.30;;;2.00;;
5127;SDS011;2582;48.770;9.190;2023-12-20T11:59:21;5.80;;;2.10;;
5127;SDS011;2582;48.770;9.190;2023-12-20T12:01:53;5.50;;;2.10;;
5127;SDS011;2582;48.770;9.190;2023-12-20T12:04:21;5.07;;;2.40;;
5127;SDS011;2582;48.770;9.190;2023-12-20T12:06:46;7.53;;;2.37;;
5127;SDS011;2582;48.770;9.190;2023-12-20T12:09:12;3.90;;;2.50;;
5127;SDS011;2582;48.770;9.190;2023-12-20T12:11:37;3.43;;;2.20;;
5127;SDS011;2582;48.770;9.190;2023-12-20T12:14:03;4.30;;;2.33;;
5127;SDS011;2582;48.770;9.190;2023-12-20T12:16:29;7.60;;;2.23;;
5127;SDS011;2582;48.770;9.190;2023-12-20T12:18:58;3.40;;;2.13;;
5127;SDS011;2582;48.770;9.190;2023-12-20T12:21:24;6.33;;;2.30;;
5127;SDS011;2582;48.770;9.190;2023-12-20T12:23:49;3.77;;;2.43;;
5127;SDS011;2582;48.770;9.190;2023-12-20T12:26:15;3.53;;;1.90;;
5127;SDS011;2582;48.770;9.190;2023-12-20T12:28:41;2.20;;;1.50;;
5127;SDS011;2582;48.770;9.190;2023-12-20T12:31:07;4.30;;;2.17;;
5127;SDS011;2582;48.770;9.190;2023-12-20T12:33:38;4.10;;;1.60;;
5127;SDS011;2582;48.770;9.190;2023-12-20T12:36:04;2.40;;;2.20;;
5127;SDS011;2582;48.770;9.190;2023-12-20T12:38:32;10.30;;;2.70;;
5127;SDS011;2582;48.770;9.190;2023-12-20T12:40:57;4.40;;;2.30;;
5127;SDS011;2582;48.770;9.190;2023-12-20T12:43:23;3.23;;;2.00;;
5127;SDS011;2582;48.770;9.190;2023-12-20T12:45:49;5.23;;;2.77;;
5127;SDS011;2582;48.770;9.190;2023-12-20T12:48:14;4.10;;;2.50;;
5127;SDS011;2582;48.770;9.190;2023-12-20T12:50:40;5.10;;;2.10;;
5127;SDS011;2582;48.770;9.190;2023-12-20T12:53:06;4.30;;;2.40;;
5127;SDS011;2582;48.770;9.190;2023-12-20T12:55:31;4.23;;;2.30;;
5127;SDS011;2582;48.770;9.190;2023-12-20T12:57:57;5.23;;;2.03;;
5127;SDS011;2582;48.770;9.190;2023-12-20T13:00:23;8.50;;;2.93;;
5127;SDS011;2582;48.770;9.190;2023-12-20T13:02:49;2.90;;;1.83;;
5127;SDS011;2582;48.770;9.190;2023-12-20T13:05:15;6.17;;;2.27;;
5127;SDS011;2582;48.770;9.190;2023-12-20T13:07:40;4.73;;;1.77;;
5127;SDS011;2582;48.770;9.190;2023-12-20T13:10:10;4.77;;;2.23;;
5127;SDS011;2582;48.770;9.190;2023-12-20T13:12:36;3.27;;;2.30;;
5127;SDS011;2582;48.770;9.190;2023-12-20T13:15:01;4.43;;;1.73;;
5127;SDS011;2582;48.770;9.190;2023-12-20T13:17:28;4.37;;;1.90;;
5127;SDS011;2582;48.770;9.190;2023-12-20T13:19:54;3.80;;;1.80;;
5127;SDS011;2582;48.770;9.190;2023-12-20T13:22:20;4.40;;;2.30;;
5127;SDS011;2582;48.770;9.190;2023-12-20T13:24:45;4.10;;;1.67;;
5127;SDS011;2582;48.770;9.190;2023-12-20T13:27:11;4.07;;;1.60;;
5127;SDS011;2582;48.770;9.190;2023-12-20T13:29:36;3.10;;;1.77;;
5127;SDS011;2582;48.770;9.190;2023-12-20T13:32:02;4.37;;;2.30;;
5127;SDS011;2582;48.770;9.190;2023-12-20T13:34:28;3.27;;;1.70;;
5127;SDS011;2582;48.770;9.190;2023-12-20T13:36:54;6.67;;;2.17;;
5127;SDS011;2582;48.770;9.190;2023-12-20T13:39:20;4.10;;;1.73;;
5127;SDS011;2582;48.770;9.190;2023-12-20T13:41:46;5.73;;;2.03;;
5127;SDS011;2582;48.770;9.190;2023-12-20T13:44:12;4.70;;;2.00;;
5127;SDS011;2582;48.770;9.190;2023-12-20T13:46:38;3.40;;;1.60;;
5127;SDS011;2582;48.770;9.190;2023-12-20T13:49:03;4.10;;;1.60;;
5127;SDS011;2582;48.770;9.190;2023-12-20T13:51:30;4.60;;;2.00;;
5127;SDS011;2582;48.770;9.190;2023-12-20T13:53:55;3.40;;;1.73;;
5127;SDS011;2582;48.770;9.190;2023-12-20T13:56:22;2.07;;;1.50;;
5127;SDS011;2582;48.770;9.190;2023-12-20T13:58:48;4.40;;;1.87;;
5127;SDS011;2582;48.770;9.190;2023-12-20T14:01:13;6.13;;;2.23;;
5127;SDS011;2582;48.770;9.190;2023-12-20T14:03:39;6.80;;;2.77;;
5127;SDS011;2582;48.770;9.190;2023-12-20T14:06:06;4.80;;;1.93;;
5127;SDS011;2582;48.770;9.190;2023-12-20T14:08:32;2.73;;;1.70;;
5127;SDS011;2582;48.770;9.190;2023-12-20T14:10:57;7.17;;;2.50;;
5127;SDS011;2582;48.770;9.190;2023-12-20T14:13:23;3.77;;;1.97;;
5127;SDS011;2582;48.770;9.190;2023-12-20T14:15:48;2.40;;;1.83;;
5127;SDS011;2582;48.770;9.190;2023-12-20T14:18:14;2.83;;;1.83;;
5127;SDS011;2582;48.770;9.190;2023-12-20T14:20:40;4.13;;;1.70;;
5127;SDS011;2582;48.770;9.190;2023-12-20T14:23:07;1.80;;;1.40;;
5127;SDS011;2582;48.770;9.190;2023-12-20T14:25:34;2.80;;;1.70;;
5127;SDS011;2582;48.770;9.190;2023-12-20T14:28:02;4.23;;;1.97;;
5127;SDS011;2582;48.770;9.190;2023-12-20T14:30:31;2.83;;;1.83;;
5127;SDS011;2582;48.770;9.190;2023-12-20T14:32:57;3.40;;;1.77;;
5127;SDS011;2582;48.770;9.190;2023-12-20T14:35:23;4.00;;;1.53;;
5127;SDS011;2582;48.770;9.190;2023-12-20T14:37:48;4.67;;;2.07;;
5127;SDS011;2582;48.770;9.190;2023-12-20T14:40:15;3.67;;;1.80;;
5127;SDS011;2582;48.770;9.190;2023-12-20T14:42:41;6.00;;;2.80;;
5127;SDS011;2582;48.770;9.190;2023-12-20T14:45:08;3.90;;;2.40;;
5127;SDS011;2582;48.770;9.190;2023-12-20T14:47:34;4.77;;;2.53;;
5127;SDS011;2582;48.770;9.190;2023-12-20T14:50:01;4.47;;;2.30;;
5127;SDS011;2582;48.770;9.190;2023-12-20T14:52:28;7.73;;;2.33;;
5127;SDS011;2582;48.770;9.190;2023-12-20T14:54:54;10.03;;;2.90;;
5127;SDS011;2582;48.770;9.190;2023-12-20T14:57:20;5.50;;;2.20;;
5127;SDS011;2582;48.770;9.190;2023-12-20T14:59:45;4.87;;;1.83;;
5127;SDS011;2582;48.770;9.190;2023-12-20T15:02:11;3.60;;;2.13;;
5127;SDS011;2582;48.770;9.190;2023-12-20T15:04:37;4.80;;;2.30;;
5127;SDS011;2582;48.770;9.190;2023-12-20T15:07:02;3.57;;;2.23;;
5127;SDS011;2582;48.770;9.190;2023-12-20T15:09:30;5.27;;;1.60;;
5127;SDS011;2582;48.770;9.190;2023-12-20T15:11:56;3.03;;;2.00;;
5127;SDS011;2582;48.770;9.190;2023-12-20T15:14:22;2.87;;;1.70;;
5127;SDS011;2582;48.770;9.190;2023-12-20T15:16:47;2.93;;;2.07;;
5127;SDS011;2582;48.770;9.190;2023-12-20T15:19:13;5.77;;;1.97;;